Time;durP1;ratioP1;P1;durP2;ratioP2;P2;SDS_P1;SDS_P2;PMS_P1;PMS_P2;Temp;Humidity;BMP_temperature;BMP_pressure;BME280_temperature;BME280_humidity;BME280_pressure;Samples;Min_cycle;Max_cycle;Signal;HPM_P1;HPM_P2
2023/11/04 00:01:12;;;;;;;6.38;2.10;;;;;;;;;;5055283;28;20028;-70
2023/11/04 00:03:38;;;;;;;5.93;2.47;;;;;;;;;;5036542;28;20502;-69
2023/11/04 00:06:03;;;;;;;14.25;3.63;;;;;;;;;;5055407;28;20028;-70
2023/11/04 00:08:28;;;;;;;13.85;3.65;;;;;;;;;;5055289;28;20103;-70
2023/11/04 00:10:54;;;;;;;8.82;2.33;;;;;;;;;;5055196;28;20474;-70
2023/11/04 00:13:19;;;;;;;5.43;3.00;;;;;;;;;;5055122;28;20048;-69
2023/11/04 00:15:44;;;;;;;15.50;2.55;;;;;;;;;;5054645;28;20466;-70
2023/11/04 00:18:10;;;;;;;9.05;3.15;;;;;;;;;;5045060;28;20021;-69
2023/11/04 00:20:35;;;;;;;10.70;2.22;;;;;;;;;;5037947;28;20475;-69
2023/11/04 00:23:00;;;;;;;10.55;2.55;;;;;;;;;;5035650;28;20029;-69
2023/11/04 00:25:25;;;;;;;5.57;2.42;;;;;;;;;;5045007;28;20508;-70
2023/11/04 00:27:51;;;;;;;10.65;2.67;;;;;;;;;;5053787;28;20021;-69
2023/11/04 00:30:16;;;;;;;6.22;3.10;;;;;;;;;;5054571;28;20521;-70
2023/11/04 00:32:42;;;;;;;8.30;2.17;;;;;;;;;;5054585;28;20107;-69
2023/11/04 00:35:07;;;;;;;10.35;2.40;;;;;;;;;;5050570;28;20033;-70
2023/11/04 00:37:33;;;;;;;7.43;2.65;;;;;;;;;;5053374;28;20020;-69
2023/11/04 00:40:01;;;;;;;5.55;2.83;;;;;;;;;;5048654;28;20029;-69
2023/11/04 00:42:26;;;;;;;10.32;2.40;;;;;;;;;;5036083;28;20033;-69
2023/11/04 00:44:51;;;;;;;9.90;2.65;;;;;;;;;;5027572;28;20030;-70
2023/11/04 00:47:17;;;;;;;8.10;2.20;;;;;;;;;;5033955;28;20471;-69
2023/11/04 00:49:42;;;;;;;8.32;2.40;;;;;;;;;;5042808;28;20029;-69
2023/11/04 00:52:09;;;;;;;10.85;2.60;;;;;;;;;;5054031;28;20032;-70
2023/11/04 00:54:34;;;;;;;7.35;2.65;;;;;;;;;;5052793;28;20060;-70
2023/11/04 00:56:59;;;;;;;8.90;2.25;;;;;;;;;;5036351;28;20074;-69
2023/11/04 00:59:25;;;;;;;11.65;2.47;;;;;;;;;;5053295;28;20123;-69
2023/11/04 01:01:50;;;;;;;7.78;2.65;;;;;;;;;;5053920;28;20035;-70
2023/11/04 01:04:15;;;;;;;7.28;2.70;;;;;;;;;;5054015;28;20029;-70
2023/11/04 01:06:41;;;;;;;8.93;2.60;;;;;;;;;;5044810;28;20026;-69
2023/11/04 01:09:06;;;;;;;6.43;2.90;;;;;;;;;;5034014;28;20021;-69
2023/11/04 01:11:32;;;;;;;5.78;2.15;;;;;;;;;;5033843;28;20043;-70
2023/11/04 01:13:58;;;;;;;6.28;3.00;;;;;;;;;;5033493;28;20116;-70
2023/11/04 01:16:23;;;;;;;8.00;2.78;;;;;;;;;;5034703;28;20025;-70
2023/11/04 01:18:48;;;;;;;9.05;2.92;;;;;;;;;;5019880;28;20052;-69
2023/11/04 01:21:17;;;;;;;7.85;2.72;;;;;;;;;;5037159;28;20478;-70
2023/11/04 01:23:42;;;;;;;12.02;2.78;;;;;;;;;;5036019;28;20055;-69
2023/11/04 01:26:07;;;;;;;8.48;3.05;;;;;;;;;;5052997;28;20489;-69
2023/11/04 01:28:33;;;;;;;8.05;2.78;;;;;;;;;;5053688;28;20052;-69
2023/11/04 01:30:58;;;;;;;11.10;3.47;;;;;;;;;;5053666;28;20397;-70
2023/11/04 01:33:26;;;;;;;7.00;3.53;;;;;;;;;;5053773;28;20471;-69
2023/11/04 01:35:51;;;;;;;6.50;3.35;;;;;;;;;;5053560;28;20031;-69
2023/11/04 01:38:16;;;;;;;9.95;3.17;;;;;;;;;;5053565;28;20033;-70
2023/11/04 01:40:50;;;;;;;10.35;3.75;;;;;;;;;;5052813;28;20028;-69
2023/11/04 01:43:29;;;;;;;7.25;3.33;;;;;;;;;;5053475;28;20025;-70
2023/11/04 01:46:17;;;;;;;8.05;3.53;;;;;;;;;;5036044;28;20035;-70
2023/11/04 01:48:43;;;;;;;8.32;3.65;;;;;;;;;;5035401;28;20394;-69
2023/11/04 01:51:09;;;;;;;10.63;3.17;;;;;;;;;;5035694;28;20027;-69
2023/11/04 01:53:35;;;;;;;12.77;3.95;;;;;;;;;;5053281;28;20059;-69
2023/11/04 01:56:01;;;;;;;15.35;3.65;;;;;;;;;;5052570;28;20025;-69
2023/11/04 01:58:26;;;;;;;7.93;3.15;;;;;;;;;;5053210;28;20078;-70
2023/11/04 02:00:52;;;;;;;8.25;3.65;;;;;;;;;;5035224;28;20100;-69
2023/11/04 02:03:17;;;;;;;9.45;4.60;;;;;;;;;;5034853;28;20418;-67
2023/11/04 02:05:45;;;;;;;11.50;4.30;;;;;;;;;;5054951;28;20017;-67
2023/11/04 02:08:11;;;;;;;12.18;4.25;;;;;;;;;;5057143;28;20075;-67
2023/11/04 02:10:36;;;;;;;17.23;5.00;;;;;;;;;;5039275;28;20441;-67
2023/11/04 02:13:02;;;;;;;9.27;4.15;;;;;;;;;;5057487;28;20024;-67
2023/11/04 02:15:27;;;;;;;9.32;3.60;;;;;;;;;;5038704;28;20025;-67
2023/11/04 02:17:53;;;;;;;8.93;3.83;;;;;;;;;;5039058;28;20421;-68
2023/11/04 02:20:20;;;;;;;10.95;3.72;;;;;;;;;;5056869;28;20363;-67
2023/11/04 02:22:45;;;;;;;8.88;4.32;;;;;;;;;;5039191;28;20633;-67
2023/11/04 02:25:11;;;;;;;8.57;4.03;;;;;;;;;;5038277;28;20035;-67
2023/11/04 02:27:36;;;;;;;10.23;3.70;;;;;;;;;;5056625;28;20547;-67
2023/11/04 02:30:02;;;;;;;9.40;3.25;;;;;;;;;;5038692;28;20103;-68
2023/11/04 02:32:27;;;;;;;10.02;3.67;;;;;;;;;;5056592;28;20052;-68
2023/11/04 02:34:52;;;;;;;16.30;4.25;;;;;;;;;;5056506;28;20486;-68
2023/11/04 02:37:18;;;;;;;9.32;3.28;;;;;;;;;;5037756;28;20048;-67
2023/11/04 02:39:44;;;;;;;10.73;3.65;;;;;;;;;;5056674;28;20021;-68
2023/11/04 02:42:09;;;;;;;12.25;3.85;;;;;;;;;;5038866;28;20033;-67
2023/11/04 02:44:34;;;;;;;15.80;3.67;;;;;;;;;;5056139;28;20478;-67
2023/11/04 02:47:00;;;;;;;7.15;3.08;;;;;;;;;;5056439;28;20032;-67
2023/11/04 02:49:25;;;;;;;16.05;4.57;;;;;;;;;;5055737;28;20025;-67
2023/11/04 02:51:50;;;;;;;5.82;3.40;;;;;;;;;;5056381;28;20017;-67
2023/11/04 02:54:16;;;;;;;5.93;2.90;;;;;;;;;;5056097;28;20032;-67
2023/11/04 02:56:41;;;;;;;5.20;3.08;;;;;;;;;;5056113;28;20025;-67
2023/11/04 02:59:06;;;;;;;7.50;3.55;;;;;;;;;;5056104;28;20505;-67
2023/11/04 03:01:32;;;;;;;7.15;3.67;;;;;;;;;;5038329;28;20017;-67
2023/11/04 03:04:01;;;;;;;11.20;3.65;;;;;;;;;;5056161;28;20091;-68
2023/11/04 03:06:26;;;;;;;11.68;3.95;;;;;;;;;;5038308;28;20071;-67
2023/11/04 03:08:51;;;;;;;9.50;3.70;;;;;;;;;;5056497;28;20025;-68
2023/11/04 03:11:17;;;;;;;13.10;3.50;;;;;;;;;;5038565;28;20025;-68
2023/11/04 03:13:43;;;;;;;13.23;3.92;;;;;;;;;;5057664;28;20104;-67
2023/11/04 03:16:08;;;;;;;14.90;3.58;;;;;;;;;;5055643;28;20393;-68
2023/11/04 03:18:34;;;;;;;6.68;3.70;;;;;;;;;;5054882;28;20028;-67
2023/11/04 03:21:06;;;;;;;10.95;3.60;;;;;;;;;;5037865;28;20100;-68
2023/11/04 03:23:31;;;;;;;11.20;3.30;;;;;;;;;;5055599;28;20124;-68
2023/11/04 03:25:56;;;;;;;9.98;3.95;;;;;;;;;;5056250;28;20553;-67
2023/11/04 03:28:21;;;;;;;8.55;3.60;;;;;;;;;;5054788;28;20025;-68
2023/11/04 03:30:47;;;;;;;8.00;3.47;;;;;;;;;;5055314;28;20029;-68
2023/11/04 03:33:12;;;;;;;8.43;3.33;;;;;;;;;;5055852;28;20023;-67
2023/11/04 03:35:37;;;;;;;5.57;3.25;;;;;;;;;;5055171;28;20082;-67
2023/11/04 03:38:02;;;;;;;7.45;3.38;;;;;;;;;;5055123;28;20017;-68
2023/11/04 03:40:28;;;;;;;4.78;3.33;;;;;;;;;;5055153;28;20032;-67
2023/11/04 03:42:53;;;;;;;5.97;3.22;;;;;;;;;;5055219;28;20112;-67
2023/11/04 03:45:19;;;;;;;10.70;3.42;;;;;;;;;;5055159;28;20029;-67
2023/11/04 03:47:44;;;;;;;5.25;2.42;;;;;;;;;;5054610;28;20017;-68
2023/11/04 03:50:09;;;;;;;9.43;3.47;;;;;;;;;;5055368;28;20032;-67
2023/11/04 03:52:34;;;;;;;5.47;2.67;;;;;;;;;;5055047;28;20386;-67
2023/11/04 03:55:00;;;;;;;7.00;2.85;;;;;;;;;;5055005;28;20066;-67
2023/11/04 03:57:25;;;;;;;7.03;3.17;;;;;;;;;;5055162;28;20021;-67
2023/11/04 03:59:51;;;;;;;4.32;3.08;;;;;;;;;;5054529;28;20600;-67
2023/11/04 04:02:16;;;;;;;6.82;2.83;;;;;;;;;;5055269;28;20035;-67
2023/11/04 04:04:42;;;;;;;3.92;2.60;;;;;;;;;;5054997;28;20482;-67
2023/11/04 04:07:07;;;;;;;6.80;2.90;;;;;;;;;;5054727;28;20036;-67
2023/11/04 04:09:33;;;;;;;6.50;3.30;;;;;;;;;;5054431;28;20442;-67
2023/11/04 04:11:58;;;;;;;6.70;2.97;;;;;;;;;;5054569;28;20021;-67
2023/11/04 04:14:23;;;;;;;5.80;3.10;;;;;;;;;;5054658;28;20021;-67
2023/11/04 04:16:48;;;;;;;6.18;2.42;;;;;;;;;;5054702;28;20071;-67
2023/11/04 04:19:14;;;;;;;7.32;2.75;;;;;;;;;;5054616;28;20100;-67
2023/11/04 04:21:39;;;;;;;11.05;2.78;;;;;;;;;;5054616;28;20487;-67
2023/11/04 04:24:05;;;;;;;6.70;3.35;;;;;;;;;;5053512;28;20057;-67
2023/11/04 04:26:30;;;;;;;5.45;2.55;;;;;;;;;;5054580;28;20029;-67
2023/11/04 04:28:56;;;;;;;4.43;2.50;;;;;;;;;;5035530;28;20036;-67
2023/11/04 04:31:22;;;;;;;8.73;2.83;;;;;;;;;;5054335;28;20020;-68
2023/11/04 04:33:47;;;;;;;9.73;3.38;;;;;;;;;;5053720;28;20025;-67
2023/11/04 04:36:12;;;;;;;9.20;2.80;;;;;;;;;;5036860;28;20057;-67
2023/11/04 04:38:38;;;;;;;5.65;3.13;;;;;;;;;;5054316;28;20013;-68
2023/11/04 04:41:04;;;;;;;8.75;2.75;;;;;;;;;;5054043;28;20021;-67
2023/11/04 04:43:30;;;;;;;5.50;2.60;;;;;;;;;;5036408;28;20426;-67
2023/11/04 04:45:55;;;;;;;9.15;2.80;;;;;;;;;;5054097;28;20025;-68
2023/11/04 04:48:20;;;;;;;11.73;3.03;;;;;;;;;;5053825;28;20025;-67
2023/11/04 04:50:46;;;;;;;6.60;2.92;;;;;;;;;;5054227;28;20017;-67
2023/11/04 04:53:11;;;;;;;11.23;3.58;;;;;;;;;;5054467;28;20146;-67
2023/11/04 04:55:36;;;;;;;16.85;3.17;;;;;;;;;;5036476;28;20208;-68
2023/11/04 04:58:02;;;;;;;10.52;3.13;;;;;;;;;;5054138;28;20071;-67
2023/11/04 05:00:27;;;;;;;14.00;3.35;;;;;;;;;;5035964;28;20033;-67
2023/11/04 05:02:52;;;;;;;5.70;2.80;;;;;;;;;;5054273;28;20025;-68
2023/11/04 05:05:17;;;;;;;8.63;3.72;;;;;;;;;;5053992;28;20029;-68
2023/11/04 05:07:43;;;;;;;7.75;3.15;;;;;;;;;;5054091;28;20025;-67
2023/11/04 05:10:09;;;;;;;5.90;2.90;;;;;;;;;;5053449;28;20084;-67
2023/11/04 05:12:35;;;;;;;8.43;3.83;;;;;;;;;;5036462;28;20071;-67
2023/11/04 05:15:00;;;;;;;6.65;3.38;;;;;;;;;;5053805;28;20028;-67
2023/11/04 05:17:25;;;;;;;11.20;3.65;;;;;;;;;;5054308;28;20116;-67
2023/11/04 05:19:54;;;;;;;5.78;3.80;;;;;;;;;;5053329;28;20087;-68
2023/11/04 05:22:19;;;;;;;4.65;2.92;;;;;;;;;;5053785;28;20447;-68
2023/11/04 05:24:44;;;;;;;11.30;3.53;;;;;;;;;;5053999;28;20057;-68
2023/11/04 05:27:10;;;;;;;6.30;3.65;;;;;;;;;;5053711;28;20059;-68
2023/11/04 05:29:35;;;;;;;5.38;3.40;;;;;;;;;;5036090;28;20021;-67
2023/11/04 05:32:00;;;;;;;7.32;3.80;;;;;;;;;;5053840;28;20025;-68
2023/11/04 05:34:25;;;;;;;4.25;2.97;;;;;;;;;;5053597;28;20029;-67
2023/11/04 05:36:52;;;;;;;6.70;3.30;;;;;;;;;;5053687;28;20035;-67
2023/11/04 05:39:17;;;;;;;7.93;3.67;;;;;;;;;;5053312;28;20033;-67
2023/11/04 05:41:43;;;;;;;7.00;3.42;;;;;;;;;;5053138;28;20077;-67
2023/11/04 05:44:08;;;;;;;7.80;4.75;;;;;;;;;;5053419;28;20366;-68
2023/11/04 05:46:35;;;;;;;5.60;3.72;;;;;;;;;;5053675;28;20047;-68
2023/11/04 05:49:00;;;;;;;12.55;4.03;;;;;;;;;;5053508;28;20036;-67
2023/11/04 05:51:26;;;;;;;6.40;3.92;;;;;;;;;;5035833;28;20025;-67
2023/11/04 05:53:51;;;;;;;11.35;3.95;;;;;;;;;;5036144;28;20029;-68
2023/11/04 05:56:17;;;;;;;10.85;4.38;;;;;;;;;;5052796;28;20021;-68
2023/11/04 05:58:43;;;;;;;6.65;3.70;;;;;;;;;;5053519;28;20035;-68
2023/11/04 06:01:08;;;;;;;5.25;3.28;;;;;;;;;;5053274;28;20021;-67
2023/11/04 06:03:34;;;;;;;11.38;3.80;;;;;;;;;;5053165;28;20112;-67
2023/11/04 06:05:59;;;;;;;10.15;3.97;;;;;;;;;;5035830;28;20036;-67
2023/11/04 06:08:25;;;;;;;12.45;4.60;;;;;;;;;;5052807;28;20021;-67
2023/11/04 06:10:50;;;;;;;8.15;4.15;;;;;;;;;;5053310;28;20021;-67
2023/11/04 06:13:16;;;;;;;7.53;5.22;;;;;;;;;;5053346;28;20116;-67
2023/11/04 06:15:41;;;;;;;10.18;5.78;;;;;;;;;;5052747;28;20021;-67
2023/11/04 06:18:06;;;;;;;12.30;5.78;;;;;;;;;;5053465;28;20061;-67
2023/11/04 06:20:31;;;;;;;13.63;5.80;;;;;;;;;;5053330;28;20111;-67
2023/11/04 06:22:57;;;;;;;11.85;6.22;;;;;;;;;;5053453;28;20490;-67
2023/11/04 06:25:22;;;;;;;10.05;5.30;;;;;;;;;;5043506;23;20053;-67
2023/11/04 06:27:47;;;;;;;10.98;6.15;;;;;;;;;;5033281;28;20026;-67
2023/11/04 06:30:13;;;;;;;12.20;5.47;;;;;;;;;;5033735;28;20032;-67
2023/11/04 06:32:38;;;;;;;10.63;5.40;;;;;;;;;;5033304;28;20104;-67
2023/11/04 06:35:05;;;;;;;13.23;5.82;;;;;;;;;;5032795;28;20022;-67
2023/11/04 06:37:30;;;;;;;13.13;5.60;;;;;;;;;;5033071;28;20030;-67
2023/11/04 06:39:55;;;;;;;10.57;5.60;;;;;;;;;;5033134;28;20041;-67
2023/11/04 06:42:26;;;;;;;11.25;5.15;;;;;;;;;;5033577;28;20021;-67
2023/11/04 06:44:51;;;;;;;9.38;5.15;;;;;;;;;;5032781;28;20029;-67
2023/11/04 06:47:17;;;;;;;11.18;5.00;;;;;;;;;;5032711;28;20075;-67
2023/11/04 06:49:42;;;;;;;14.75;6.28;;;;;;;;;;5033164;28;20025;-68
2023/11/04 06:52:07;;;;;;;9.30;5.25;;;;;;;;;;5016369;28;20032;-67
2023/11/04 06:54:33;;;;;;;10.65;4.97;;;;;;;;;;5018843;28;20474;-67
2023/11/04 06:56:58;;;;;;;10.48;4.70;;;;;;;;;;5036514;28;20441;-67
2023/11/04 06:59:24;;;;;;;7.15;4.68;;;;;;;;;;5036037;28;20053;-67
2023/11/04 07:01:49;;;;;;;9.73;4.75;;;;;;;;;;5036465;28;20030;-67
2023/11/04 07:04:15;;;;;;;12.60;4.90;;;;;;;;;;5018752;28;20063;-67
2023/11/04 07:06:42;;;;;;;8.80;4.60;;;;;;;;;;5036393;28;20509;-67
2023/11/04 07:09:08;;;;;;;9.75;4.90;;;;;;;;;;5019215;28;20032;-67
2023/11/04 07:11:34;;;;;;;8.27;3.75;;;;;;;;;;5036313;28;20032;-67
2023/11/04 07:13:59;;;;;;;6.90;4.38;;;;;;;;;;5017856;28;20030;-67
2023/11/04 07:16:24;;;;;;;8.85;3.55;;;;;;;;;;5036263;28;20029;-68
2023/11/04 07:18:49;;;;;;;5.38;3.40;;;;;;;;;;5036106;28;20056;-68
2023/11/04 07:21:15;;;;;;;8.88;3.45;;;;;;;;;;5036149;28;20478;-68
2023/11/04 07:23:41;;;;;;;5.22;3.53;;;;;;;;;;5001473;28;20029;-67
2023/11/04 07:26:07;;;;;;;7.20;3.35;;;;;;;;;;5002283;28;20087;-67
2023/11/04 07:28:36;;;;;;;7.32;3.88;;;;;;;;;;5018473;28;20475;-67
2023/11/04 07:31:05;;;;;;;6.90;3.67;;;;;;;;;;5018903;28;20029;-67
2023/11/04 07:33:31;;;;;;;10.15;2.97;;;;;;;;;;5035264;28;20108;-67
2023/11/04 07:35:56;;;;;;;5.30;3.40;;;;;;;;;;5018143;28;20052;-67
2023/11/04 07:38:21;;;;;;;6.85;2.67;;;;;;;;;;5035797;28;20033;-67
2023/11/04 07:40:47;;;;;;;6.65;4.03;;;;;;;;;;5018860;28;20026;-67
2023/11/04 07:43:13;;;;;;;8.25;3.58;;;;;;;;;;5035593;28;20546;-67
2023/11/04 07:45:38;;;;;;;8.38;3.80;;;;;;;;;;5035855;28;20021;-67
2023/11/04 07:48:04;;;;;;;7.57;3.63;;;;;;;;;;5035293;28;20029;-67
2023/11/04 07:50:30;;;;;;;9.57;3.08;;;;;;;;;;5014564;28;20040;-67
2023/11/04 07:52:55;;;;;;;7.38;3.20;;;;;;;;;;5026163;28;20025;-67
2023/11/04 07:55:21;;;;;;;6.03;3.00;;;;;;;;;;5035027;28;20548;-67
2023/11/04 07:57:47;;;;;;;8.00;3.78;;;;;;;;;;5015390;28;20029;-67
2023/11/04 08:00:12;;;;;;;5.82;3.38;;;;;;;;;;5035040;28;20029;-67
2023/11/04 08:02:38;;;;;;;9.75;3.60;;;;;;;;;;5034679;28;20025;-67
2023/11/04 08:05:04;;;;;;;6.72;3.05;;;;;;;;;;5000648;28;20041;-67
2023/11/04 08:07:30;;;;;;;6.72;3.50;;;;;;;;;;4997798;28;20030;-68
2023/11/04 08:09:56;;;;;;;7.97;2.90;;;;;;;;;;5015080;28;20029;-67
2023/11/04 08:12:21;;;;;;;6.47;3.15;;;;;;;;;;4997911;28;20021;-67
2023/11/04 08:14:47;;;;;;;6.28;2.95;;;;;;;;;;4997629;28;20025;-69
2023/11/04 08:17:12;;;;;;;11.75;3.83;;;;;;;;;;4997769;28;20534;-69
2023/11/04 08:19:38;;;;;;;10.23;3.45;;;;;;;;;;5020619;28;20025;-69
2023/11/04 08:22:03;;;;;;;10.45;4.03;;;;;;;;;;5018330;28;20018;-68
2023/11/04 08:24:29;;;;;;;5.07;3.10;;;;;;;;;;5013783;28;20380;-68
2023/11/04 08:26:55;;;;;;;8.52;3.58;;;;;;;;;;5015198;28;20057;-68
2023/11/04 08:29:20;;;;;;;5.82;3.10;;;;;;;;;;5014794;28;20029;-67
2023/11/04 08:31:45;;;;;;;4.45;3.15;;;;;;;;;;4997179;28;20024;-67
2023/11/04 08:34:11;;;;;;;5.80;3.10;;;;;;;;;;5015147;28;20077;-68
2023/11/04 08:36:36;;;;;;;5.15;3.55;;;;;;;;;;5026544;28;20037;-67
2023/11/04 08:39:01;;;;;;;4.07;2.95;;;;;;;;;;5034655;28;20021;-67
2023/11/04 08:41:27;;;;;;;5.18;3.05;;;;;;;;;;5034475;28;20517;-67
2023/11/04 08:43:52;;;;;;;7.25;3.10;;;;;;;;;;5033817;28;20075;-67
2023/11/04 08:46:18;;;;;;;5.03;3.47;;;;;;;;;;5016652;28;20494;-67
2023/11/04 08:48:47;;;;;;;10.27;4.05;;;;;;;;;;5034017;28;20095;-67
2023/11/04 08:51:12;;;;;;;9.07;3.30;;;;;;;;;;5034109;28;20021;-67
2023/11/04 08:53:37;;;;;;;10.55;2.92;;;;;;;;;;5016082;28;20113;-67
2023/11/04 08:56:06;;;;;;;8.75;3.25;;;;;;;;;;5016447;28;20025;-67
2023/11/04 08:58:32;;;;;;;6.80;2.80;;;;;;;;;;5034286;28;20037;-67
2023/11/04 09:00:57;;;;;;;5.07;2.60;;;;;;;;;;5033724;28;20368;-67
2023/11/04 09:03:25;;;;;;;9.68;3.22;;;;;;;;;;5033549;28;20100;-67
2023/11/04 09:05:51;;;;;;;5.45;2.50;;;;;;;;;;5032904;28;20060;-67
2023/11/04 09:08:16;;;;;;;6.28;2.65;;;;;;;;;;5033829;28;20111;-67
2023/11/04 09:10:42;;;;;;;5.32;3.08;;;;;;;;;;5033461;28;20052;-68
2023/11/04 09:13:07;;;;;;;6.55;3.00;;;;;;;;;;5015620;28;20032;-67
2023/11/04 09:15:36;;;;;;;5.93;2.25;;;;;;;;;;5032542;28;20104;-67
2023/11/04 09:18:04;;;;;;;6.30;3.17;;;;;;;;;;5033683;28;20545;-68
2023/11/04 09:20:29;;;;;;;6.43;3.05;;;;;;;;;;5033372;28;20559;-67
2023/11/04 09:22:55;;;;;;;4.53;2.65;;;;;;;;;;5015951;28;20100;-67
2023/11/04 09:25:20;;;;;;;6.15;2.72;;;;;;;;;;5015469;28;20058;-67
2023/11/04 09:27:46;;;;;;;9.77;3.13;;;;;;;;;;5015807;28;20051;-67
2023/11/04 09:30:12;;;;;;;10.45;3.45;;;;;;;;;;5033174;28;20497;-67
2023/11/04 09:32:37;;;;;;;5.13;3.25;;;;;;;;;;5015921;28;20116;-68
2023/11/04 09:35:03;;;;;;;4.57;2.88;;;;;;;;;;5033241;28;20104;-68
2023/11/04 09:37:28;;;;;;;6.80;3.55;;;;;;;;;;5033376;28;20075;-67
2023/11/04 09:39:54;;;;;;;7.93;3.55;;;;;;;;;;5032876;28;20025;-68
2023/11/04 09:42:19;;;;;;;6.47;2.92;;;;;;;;;;5033219;28;20026;-67
2023/11/04 09:44:44;;;;;;;9.15;3.05;;;;;;;;;;5033215;28;20072;-69
2023/11/04 09:47:09;;;;;;;7.63;3.13;;;;;;;;;;5032895;28;20467;-69
2023/11/04 09:49:35;;;;;;;7.40;2.83;;;;;;;;;;5033071;28;20029;-69
2023/11/04 09:52:01;;;;;;;6.32;3.42;;;;;;;;;;5033300;28;20022;-69
2023/11/04 09:54:27;;;;;;;4.15;3.42;;;;;;;;;;5032923;28;20076;-69
2023/11/04 09:56:54;;;;;;;4.50;2.90;;;;;;;;;;5015178;28;20033;-70
2023/11/04 09:59:20;;;;;;;6.00;3.30;;;;;;;;;;4999459;28;20033;-69
2023/11/04 10:01:45;;;;;;;9.23;3.72;;;;;;;;;;5015257;28;20390;-69
2023/11/04 10:04:10;;;;;;;5.63;3.47;;;;;;;;;;5033386;28;20107;-69
2023/11/04 10:06:36;;;;;;;6.65;3.28;;;;;;;;;;5033137;28;20021;-69
2023/11/04 10:09:01;;;;;;;6.90;3.40;;;;;;;;;;5033135;28;20036;-69
2023/11/04 10:11:28;;;;;;;6.93;2.88;;;;;;;;;;5032553;28;20108;-69
2023/11/04 10:13:53;;;;;;;8.80;2.75;;;;;;;;;;5015305;28;20436;-69
2023/11/04 10:16:19;;;;;;;5.78;3.42;;;;;;;;;;5015536;28;20022;-70
2023/11/04 10:18:45;;;;;;;6.28;2.95;;;;;;;;;;5033030;28;20540;-69
2023/11/04 10:21:11;;;;;;;4.60;3.22;;;;;;;;;;5017721;28;20377;-69
2023/11/04 10:23:36;;;;;;;5.32;3.63;;;;;;;;;;5012699;28;20040;-69
2023/11/04 10:26:03;;;;;;;7.55;3.22;;;;;;;;;;5016170;28;20117;-69
2023/11/04 10:28:29;;;;;;;10.32;3.50;;;;;;;;;;5036148;28;20047;-69
2023/11/04 10:31:06;;;;;;;9.55;5.50;;;;;;;;;;5017951;28;20022;-69
2023/11/04 10:33:34;;;;;;;7.03;3.63;;;;;;;;;;5019010;28;20466;-69
2023/11/04 10:36:02;;;;;;;7.45;3.55;;;;;;;;;;5002402;28;20029;-69
2023/11/04 10:38:28;;;;;;;5.28;3.08;;;;;;;;;;5036427;28;20025;-69
2023/11/04 10:40:54;;;;;;;9.45;4.00;;;;;;;;;;5018679;28;20489;-69
2023/11/04 10:43:23;;;;;;;6.40;2.80;;;;;;;;;;5018742;28;20433;-69
2023/11/04 10:46:00;;;;;;;5.72;3.17;;;;;;;;;;5018917;28;20026;-70
2023/11/04 10:48:50;;;;;;;7.40;2.50;;;;;;;;;;5018261;28;20036;-69
2023/11/04 10:51:18;;;;;;;7.70;2.90;;;;;;;;;;5011552;28;20060;-70
2023/11/04 10:54:07;;;;;;;6.53;4.13;;;;;;;;;;5018859;28;20053;-70
2023/11/04 10:56:46;;;;;;;4.45;2.72;;;;;;;;;;5018721;28;20025;-70
2023/11/04 10:59:20;;;;;;;14.68;9.02;;;;;;;;;;5036569;28;20075;-70
2023/11/04 11:01:46;;;;;;;5.25;3.60;;;;;;;;;;5002677;28;20053;-70
2023/11/04 11:04:12;;;;;;;4.18;2.80;;;;;;;;;;5018701;28;20060;-70
2023/11/04 11:06:39;;;;;;;15.43;7.47;;;;;;;;;;5036431;28;20034;-69
2023/11/04 11:09:05;;;;;;;4.65;3.33;;;;;;;;;;5036580;28;20036;-70
2023/11/04 11:11:36;;;;;;;10.85;2.92;;;;;;;;;;5035791;28;20394;-70
2023/11/04 11:14:04;;;;;;;4.53;2.95;;;;;;;;;;5018616;28;20029;-70
2023/11/04 11:16:32;;;;;;;4.68;2.92;;;;;;;;;;5036234;28;20024;-70
2023/11/04 11:19:08;;;;;;;5.13;3.00;;;;;;;;;;5036412;28;20080;-70
2023/11/04 11:21:45;;;;;;;4.25;2.92;;;;;;;;;;5018117;28;20496;-70
2023/11/04 11:24:11;;;;;;;8.95;3.13;;;;;;;;;;5035914;28;20029;-69
2023/11/04 11:26:49;;;;;;;5.47;3.75;;;;;;;;;;5036419;28;20083;-70
2023/11/04 11:29:22;;;;;;;8.98;5.60;;;;;;;;;;5018640;28;20025;-69
2023/11/04 11:31:48;;;;;;;6.05;3.63;;;;;;;;;;5017971;28;20025;-70
2023/11/04 11:34:13;;;;;;;10.65;3.67;;;;;;;;;;5018265;28;20024;-70
2023/11/04 11:36:42;;;;;;;5.40;3.53;;;;;;;;;;5035805;28;20025;-70
2023/11/04 11:39:08;;;;;;;5.25;3.50;;;;;;;;;;5035309;28;20057;-70
2023/11/04 11:41:37;;;;;;;11.13;7.35;;;;;;;;;;5036207;28;20026;-70
2023/11/04 11:44:02;;;;;;;5.90;3.78;;;;;;;;;;5018051;28;20028;-70
2023/11/04 11:46:32;;;;;;;9.93;5.65;;;;;;;;;;5035326;28;20025;-70
2023/11/04 11:48:58;;;;;;;9.93;6.80;;;;;;;;;;5035894;28;20080;-70
2023/11/04 11:51:23;;;;;;;13.02;5.30;;;;;;;;;;5035917;28;20483;-70
2023/11/04 11:53:49;;;;;;;10.55;7.10;;;;;;;;;;5017737;28;20018;-70
2023/11/04 11:56:15;;;;;;;7.30;5.03;;;;;;;;;;5035248;28;20032;-70
2023/11/04 11:58:40;;;;;;;8.57;2.70;;;;;;;;;;5035412;28;20026;-69
2023/11/04 12:01:07;;;;;;;9.82;5.10;;;;;;;;;;5035726;28;20032;-70
2023/11/04 12:03:34;;;;;;;8.23;3.42;;;;;;;;;;5018102;28;20044;-70
2023/11/04 12:05:59;;;;;;;8.38;3.65;;;;;;;;;;5017502;28;20083;-70
2023/11/04 12:08:25;;;;;;;7.20;3.78;;;;;;;;;;5035012;28;20428;-69
2023/11/04 12:10:51;;;;;;;5.32;3.55;;;;;;;;;;5035110;28;20079;-70
2023/11/04 12:13:16;;;;;;;5.18;3.55;;;;;;;;;;5017861;28;20017;-70
2023/11/04 12:15:43;;;;;;;7.25;3.85;;;;;;;;;;5034674;28;20021;-69
2023/11/04 12:18:09;;;;;;;5.65;2.72;;;;;;;;;;5018070;28;20076;-70
2023/11/04 12:20:40;;;;;;;7.45;3.40;;;;;;;;;;5034992;28;20040;-70
2023/11/04 12:23:06;;;;;;;4.75;2.75;;;;;;;;;;5017541;28;20490;-70
2023/11/04 12:25:31;;;;;;;4.63;2.95;;;;;;;;;;5034231;28;20041;-69
2023/11/04 12:28:01;;;;;;;7.78;3.25;;;;;;;;;;5034684;28;20108;-70
2023/11/04 12:30:28;;;;;;;7.20;3.95;;;;;;;;;;5034826;28;20398;-70
2023/11/04 12:32:53;;;;;;;5.03;3.58;;;;;;;;;;5034826;28;20052;-70
2023/11/04 12:35:25;;;;;;;7.13;4.15;;;;;;;;;;5034642;28;20033;-70
2023/11/04 12:37:54;;;;;;;5.18;3.45;;;;;;;;;;5017556;28;20746;-69
2023/11/04 12:40:20;;;;;;;10.10;3.75;;;;;;;;;;5035023;28;20022;-69
2023/11/04 12:42:46;;;;;;;5.25;3.58;;;;;;;;;;5034502;28;20022;-69
2023/11/04 12:45:13;;;;;;;6.50;3.67;;;;;;;;;;5017942;28;20049;-69
2023/11/04 12:47:39;;;;;;;7.00;3.17;;;;;;;;;;5034731;28;20021;-70
2023/11/04 12:50:11;;;;;;;6.28;3.47;;;;;;;;;;5015818;28;20076;-70
2023/11/04 12:52:37;;;;;;;38.13;28.50;;;;;;;;;;5017316;28;20017;-70
2023/11/04 12:55:03;;;;;;;15.00;8.65;;;;;;;;;;5034329;28;20032;-70
2023/11/04 12:57:29;;;;;;;17.95;16.13;;;;;;;;;;5034414;28;20475;-71
2023/11/04 12:59:56;;;;;;;4.82;3.28;;;;;;;;;;5016571;28;20048;-70
2023/11/04 13:02:21;;;;;;;7.07;4.97;;;;;;;;;;5034136;28;20021;-70
2023/11/04 13:04:46;;;;;;;11.80;8.45;;;;;;;;;;5015960;28;20490;-70
2023/11/04 13:07:12;;;;;;;9.10;4.47;;;;;;;;;;5034197;28;20078;-70
2023/11/04 13:09:37;;;;;;;14.20;12.32;;;;;;;;;;5034222;28;20026;-70
2023/11/04 13:12:03;;;;;;;10.35;6.57;;;;;;;;;;5033957;28;20029;-70
2023/11/04 13:14:29;;;;;;;14.27;12.85;;;;;;;;;;5033379;28;20505;-70
2023/11/04 13:16:55;;;;;;;4.60;3.97;;;;;;;;;;5033867;28;20033;-71
2023/11/04 13:19:21;;;;;;;18.02;16.25;;;;;;;;;;5015925;28;20414;-71
2023/11/04 13:21:47;;;;;;;12.20;8.38;;;;;;;;;;5016122;28;20057;-71
2023/11/04 13:24:12;;;;;;;10.95;8.98;;;;;;;;;;5015720;28;20131;-71
2023/11/04 13:26:38;;;;;;;8.45;7.07;;;;;;;;;;5033977;28;20029;-70
2023/11/04 13:29:03;;;;;;;5.88;5.18;;;;;;;;;;5015697;28;20025;-70
2023/11/04 13:31:29;;;;;;;5.22;3.35;;;;;;;;;;5016172;28;20033;-70
2023/11/04 13:33:54;;;;;;;6.20;4.57;;;;;;;;;;5034172;28;20022;-71
2023/11/04 13:36:20;;;;;;;3.78;3.38;;;;;;;;;;5033232;28;20025;-70
2023/11/04 13:38:45;;;;;;;9.95;3.00;;;;;;;;;;5034227;28;20025;-70
2023/11/04 13:41:10;;;;;;;4.80;2.83;;;;;;;;;;5033970;28;20022;-71
2023/11/04 13:43:35;;;;;;;4.43;2.75;;;;;;;;;;5037596;28;20030;-70
2023/11/04 13:46:01;;;;;;;4.25;2.65;;;;;;;;;;5049101;28;20025;-71
2023/11/04 13:48:26;;;;;;;5.30;2.60;;;;;;;;;;5035426;28;20030;-71
2023/11/04 13:50:51;;;;;;;3.10;2.50;;;;;;;;;;5022923;28;20026;-70
2023/11/04 13:53:17;;;;;;;5.07;2.58;;;;;;;;;;5019388;28;20026;-70
2023/11/04 13:55:44;;;;;;;4.43;2.80;;;;;;;;;;5003511;28;20034;-70
2023/11/04 13:58:10;;;;;;;3.83;2.53;;;;;;;;;;5030035;28;20454;-70
2023/11/04 14:00:35;;;;;;;4.45;3.15;;;;;;;;;;5033225;28;20109;-70
2023/11/04 14:03:00;;;;;;;5.15;2.42;;;;;;;;;;5003256;28;20029;-70
2023/11/04 14:05:27;;;;;;;5.15;2.33;;;;;;;;;;5020818;28;20471;-70
2023/11/04 14:07:53;;;;;;;5.90;2.72;;;;;;;;;;5017978;28;20033;-70
2023/11/04 14:10:18;;;;;;;3.47;2.30;;;;;;;;;;5037285;28;20028;-70
2023/11/04 14:12:43;;;;;;;3.03;2.13;;;;;;;;;;5032253;28;20114;-70
2023/11/04 14:15:09;;;;;;;3.22;1.88;;;;;;;;;;5024570;28;20070;-71
2023/11/04 14:17:34;;;;;;;3.58;1.73;;;;;;;;;;5019275;28;20116;-70
2023/11/04 14:20:00;;;;;;;3.78;1.80;;;;;;;;;;5037097;28;20390;-70
2023/11/04 14:22:25;;;;;;;5.78;1.70;;;;;;;;;;5036572;28;20049;-70
2023/11/04 14:24:52;;;;;;;2.38;1.45;;;;;;;;;;5036923;28;20109;-70
2023/11/04 14:27:18;;;;;;;4.10;1.95;;;;;;;;;;5019227;28;20021;-71
2023/11/04 14:29:43;;;;;;;7.45;2.08;;;;;;;;;;5019091;28;20063;-71
2023/11/04 14:32:08;;;;;;;2.22;1.35;;;;;;;;;;5037444;28;20501;-71